createdAt,value
2023-01-31T01:55:39.677Z,98547.74
2023-01-31T01:58:13.097Z,98547.38
2023-01-31T02:00:41.860Z,98542.20
2023-01-31T02:03:08.832Z,98544.14
2023-01-31T02:05:43.891Z,98546.14
2023-01-31T02:08:12.418Z,98549.17
2023-01-31T02:10:50.876Z,98548.37
2023-01-31T02:13:18.000Z,98549.94
2023-01-31T02:15:45.280Z,98547.61
2023-01-31T02:18:12.166Z,98546.20
2023-01-31T02:21:09.530Z,98547.25
2023-01-31T02:23:39.587Z,98543.20
2023-01-31T02:26:27.978Z,98541.74
2023-01-31T02:29:16.617Z,98541.29
2023-01-31T02:32:23.865Z,98546.19
2023-01-31T02:35:27.759Z,98548.73
2023-01-31T02:38:27.310Z,98548.03
2023-01-31T02:40:55.109Z,98548.84
2023-01-31T02:43:33.400Z,98552.48
2023-01-31T02:46:07.131Z,98553.16
2023-01-31T02:48:53.064Z,98554.45
2023-01-31T02:51:26.415Z,98551.02
2023-01-31T02:54:15.732Z,98549.49
2023-01-31T02:56:43.057Z,98551.71
2023-01-31T02:59:21.339Z,98554.23
2023-01-31T03:01:54.855Z,98553.70
2023-01-31T03:04:22.576Z,98554.07
2023-01-31T03:06:59.183Z,98553.53
2023-01-31T03:09:46.371Z,98554.73
2023-01-31T03:12:20.804Z,98556.36
2023-01-31T03:15:55.805Z,98557.67
2023-01-31T03:18:25.867Z,98553.80
2023-01-31T03:21:13.968Z,98553.85
2023-01-31T03:23:40.936Z,98559.09
2023-01-31T03:26:07.786Z,98561.16
2023-01-31T03:28:39.813Z,98563.95
2023-01-31T03:31:18.899Z,98563.69
2023-01-31T03:33:48.173Z,98559.15
2023-01-31T03:36:36.507Z,98556.48
2023-01-31T03:39:34.924Z,98558.06
2023-01-31T03:42:12.781Z,98558.64
2023-01-31T03:44:50.711Z,98555.93
2023-01-31T03:47:23.283Z,98560.27
2023-01-31T03:49:51.270Z,98559.29
2023-01-31T03:52:23.087Z,98565.25
2023-01-31T03:54:54.344Z,98565.30
2023-01-31T03:57:24.009Z,98566.89
2023-01-31T03:59:53.635Z,98568.76
2023-01-31T04:02:24.815Z,98572.41
2023-01-31T04:04:56.327Z,98575.84
2023-01-31T04:07:23.104Z,98578.39
2023-01-31T04:09:52.279Z,98582.27
2023-01-31T04:12:18.924Z,98582.42
2023-01-31T04:14:48.516Z,98584.58
2023-01-31T04:17:16.835Z,98585.92
2023-01-31T04:19:43.558Z,98585.86
2023-01-31T04:22:10.606Z,98589.60
2023-01-31T04:24:37.160Z,98597.33
2023-01-31T04:27:03.901Z,98592.41
2023-01-31T04:29:30.890Z,98594.14
2023-01-31T04:31:57.952Z,98599.48
2023-01-31T04:34:25.351Z,98597.95
2023-01-31T04:36:52.059Z,98599.75
2023-01-31T04:39:18.655Z,98601.16
2023-01-31T04:41:45.956Z,98601.28
2023-01-31T04:44:13.029Z,98602.27
2023-01-31T04:46:39.628Z,98606.96
2023-01-31T04:49:06.341Z,98605.91
2023-01-31T04:51:33.706Z,98601.92
2023-01-31T04:54:02.362Z,98605.63
2023-01-31T04:56:29.284Z,98612.15
2023-01-31T04:58:56.765Z,98615.83
2023-01-31T05:01:24.300Z,98621.45
2023-01-31T05:03:51.064Z,98623.60
2023-01-31T05:06:17.921Z,98628.21
2023-01-31T05:08:44.539Z,98630.74
2023-01-31T05:11:15.249Z,98625.94
2023-01-31T05:13:42.177Z,98626.88
2023-01-31T05:16:11.016Z,98621.63
2023-01-31T05:18:38.209Z,98628.69
2023-01-31T05:21:08.309Z,98633.57
2023-01-31T05:23:35.189Z,98631.23
2023-01-31T05:26:01.970Z,98630.85
2023-01-31T05:28:28.960Z,98633.48
2023-01-31T05:31:01.607Z,98637.84
2023-01-31T05:33:31.374Z,98638.83
2023-01-31T05:35:59.607Z,98633.34
2023-01-31T05:38:27.401Z,98634.88
2023-01-31T05:40:57.114Z,98638.45
2023-01-31T05:43:24.033Z,98643.16
2023-01-31T05:45:50.624Z,98645.42
2023-01-31T05:48:17.287Z,98644.92
2023-01-31T05:50:43.964Z,98650.86
2023-01-31T05:53:11.152Z,98653.98
2023-01-31T05:55:37.926Z,98658.91
2023-01-31T05:58:04.909Z,98661.16
2023-01-31T06:00:32.167Z,98666.76
2023-01-31T06:02:59.692Z,98666.45
2023-01-31T06:05:26.960Z,98673.96
2023-01-31T06:07:53.895Z,98678.66
2023-01-31T06:10:21.753Z,98679.58
2023-01-31T06:12:48.548Z,98683.19
2023-01-31T06:15:16.586Z,98679.42
2023-01-31T06:17:44.221Z,98680.94
2023-01-31T06:20:13.215Z,98681.67
2023-01-31T06:22:40.718Z,98675.98
2023-01-31T06:25:08.085Z,98679.81
2023-01-31T06:27:35.565Z,98679.20
2023-01-31T06:30:02.933Z,98676.88
2023-01-31T06:32:30.550Z,98677.84
2023-01-31T06:34:57.470Z,98678.31
2023-01-31T06:37:24.181Z,98676.85
2023-01-31T06:39:50.956Z,98678.08
2023-01-31T06:42:18.373Z,98684.23
2023-01-31T06:44:46.193Z,98685.55
2023-01-31T06:47:14.069Z,98693.02
2023-01-31T06:49:41.015Z,98695.47
2023-01-31T06:52:09.133Z,98696.31
2023-01-31T06:54:36.288Z,98701.41
2023-01-31T06:57:03.022Z,98703.95
2023-01-31T06:59:32.828Z,98708.01
2023-01-31T07:01:59.975Z,98703.42
2023-01-31T07:04:26.664Z,98709.78
2023-01-31T07:06:54.030Z,98709.92
2023-01-31T07:09:20.749Z,98713.32
2023-01-31T07:11:47.353Z,98712.70
2023-01-31T07:14:21.181Z,98713.86
2023-01-31T07:16:48.536Z,98714.19
2023-01-31T07:19:15.714Z,98718.59
2023-01-31T07:21:43.841Z,98721.52
2023-01-31T07:24:10.508Z,98722.77
2023-01-31T07:26:38.464Z,98722.29
2023-01-31T07:29:05.103Z,98723.28
2023-01-31T07:31:32.431Z,98724.67
2023-01-31T07:33:59.532Z,98727.61
2023-01-31T07:36:26.808Z,98730.43
2023-01-31T07:38:55.311Z,98730.46
2023-01-31T07:41:23.081Z,98732.31
2023-01-31T07:43:51.400Z,98736.79
2023-01-31T07:46:19.914Z,98741.15
2023-01-31T07:48:46.592Z,98734.55
2023-01-31T07:51:13.286Z,98739.14
2023-01-31T07:53:43.439Z,98743.92
2023-01-31T07:56:14.927Z,98744.75
2023-01-31T07:58:42.872Z,98744.26
2023-01-31T08:01:32.354Z,98742.67
2023-01-31T11:43:24.659Z,98769.28
2023-01-31T11:45:59.051Z,98773.80
2023-01-31T11:48:43.708Z,98775.43
2023-01-31T11:51:26.698Z,98772.75
2023-01-31T11:53:53.535Z,98779.53
2023-01-31T11:56:30.983Z,98782.96
2023-01-31T11:59:02.033Z,98784.23
2023-01-31T12:01:30.182Z,98782.02
2023-01-31T12:04:04.645Z,98779.95
2023-01-31T12:06:38.102Z,98773.98
2023-01-31T12:09:19.149Z,98772.05
2023-01-31T12:11:54.193Z,98775.03
2023-01-31T12:14:24.958Z,98779.84
2023-01-31T12:16:54.612Z,98779.34
2023-01-31T12:19:46.446Z,98787.34
2023-01-31T12:22:21.150Z,98789.53
2023-01-31T12:24:56.190Z,98785.19
2023-01-31T12:28:00.990Z,98785.19
2023-01-31T12:30:52.236Z,98791.14
2023-01-31T12:33:39.062Z,98792.91
2023-01-31T12:36:15.337Z,98791.27
2023-01-31T12:39:13.419Z,98793.30
2023-01-31T12:41:46.532Z,98795.76
2023-01-31T12:44:23.868Z,98796.75
2023-01-31T12:47:10.899Z,98795.66
2023-01-31T12:50:08.789Z,98794.83
2023-01-31T12:52:38.947Z,98797.63
2023-01-31T12:55:13.264Z,98798.31
2023-01-31T12:57:52.861Z,98794.71
2023-01-31T13:00:32.518Z,98795.01
2023-01-31T13:03:38.077Z,98801.61
2023-01-31T13:06:28.403Z,98797.91
2023-01-31T13:09:07.765Z,98796.70
2023-01-31T13:12:06.515Z,98793.84
2023-01-31T13:14:46.327Z,98801.56
2023-01-31T13:17:14.593Z,98804.66
2023-01-31T13:20:11.209Z,98805.73
2023-01-31T13:22:48.976Z,98807.55
2023-01-31T13:25:28.056Z,98814.73
2023-01-31T13:28:19.044Z,98815.67
2023-01-31T13:30:51.364Z,98814.30
2023-01-31T13:33:22.815Z,98814.08
2023-01-31T13:36:00.248Z,98817.00
2023-01-31T13:38:30.230Z,98819.77
2023-01-31T13:40:56.959Z,98820.05
2023-01-31T13:43:23.861Z,98819.29
2023-01-31T13:45:58.694Z,98820.34
2023-01-31T13:48:30.940Z,98823.19
2023-01-31T13:51:01.244Z,98821.99
2023-01-31T13:53:36.407Z,98823.30
2023-01-31T13:56:04.608Z,98825.83
2023-01-31T13:58:34.427Z,98824.86
2023-01-31T14:01:23.908Z,98826.50
2023-01-31T14:04:14.113Z,98823.76
2023-01-31T14:06:53.712Z,98821.47
2023-01-31T14:09:35.917Z,98826.41
2023-01-31T14:12:08.778Z,98827.86
2023-01-31T14:14:46.521Z,98824.52
2023-01-31T14:17:13.257Z,98827.75
2023-01-31T14:19:43.688Z,98826.58
2023-01-31T14:22:19.712Z,98826.41
2023-01-31T14:24:46.487Z,98827.98
2023-01-31T14:27:20.280Z,98830.98
2023-01-31T14:30:08.754Z,98831.95
2023-01-31T14:32:44.371Z,98834.17
2023-01-31T14:35:22.059Z,98835.77
2023-01-31T14:38:01.603Z,98833.48
2023-01-31T14:40:59.519Z,98833.58
2023-01-31T14:43:45.166Z,98837.92
2023-01-31T14:46:29.019Z,98837.50
2023-01-31T14:49:14.863Z,98837.49
2023-01-31T14:52:04.960Z,98837.42
2023-01-31T14:55:15.747Z,98836.45
2023-01-31T14:57:47.210Z,98839.60
2023-01-31T15:00:13.941Z,98844.30
2023-01-31T15:02:43.710Z,98844.66
2023-01-31T15:05:19.735Z,98842.64
2023-01-31T15:08:07.030Z,98846.52
2023-01-31T15:10:52.615Z,98848.11
2023-01-31T15:13:34.555Z,98851.06
2023-01-31T15:16:06.352Z,98854.14
2023-01-31T15:18:33.571Z,98859.73
2023-01-31T15:21:03.413Z,98855.27
2023-01-31T15:23:31.459Z,98861.40
2023-01-31T15:25:59.269Z,98860.80
2023-01-31T15:28:28.583Z,98867.15
2023-01-31T15:30:57.133Z,98866.66
2023-01-31T15:33:40.753Z,98867.52
2023-01-31T15:36:14.951Z,98868.46
2023-01-31T15:38:48.624Z,98868.33
2023-01-31T15:41:24.558Z,98872.41
2023-01-31T15:43:56.224Z,98872.48
2023-01-31T15:46:30.813Z,98873.23
2023-01-31T15:48:58.901Z,98877.70
2023-01-31T15:51:26.363Z,98876.29
2023-01-31T15:54:05.261Z,98877.17
2023-01-31T19:40:52.269Z,98941.30
2023-01-31T19:43:21.328Z,98936.83
2023-01-31T19:45:49.761Z,98940.56
2023-01-31T19:48:18.902Z,98936.92
2023-01-31T19:50:48.155Z,98938.16
2023-01-31T19:53:16.110Z,98944.97
2023-01-31T19:55:44.381Z,98943.30
2023-01-31T19:58:12.590Z,98945.50
2023-01-31T20:00:41.060Z,98948.16
2023-01-31T20:03:09.282Z,98937.89
2023-01-31T20:05:39.203Z,98937.41
2023-01-31T20:08:07.905Z,98940.00
2023-01-31T20:10:36.151Z,98941.36
2023-01-31T20:13:04.752Z,98939.98
2023-01-31T20:15:33.964Z,98947.65
2023-01-31T20:18:02.313Z,98946.09
2023-01-31T20:20:31.077Z,98946.34
2023-01-31T20:22:59.478Z,98944.50
2023-01-31T20:25:28.191Z,98940.88
2023-01-31T20:27:56.286Z,98939.60
2023-01-31T20:30:24.452Z,98942.24
2023-01-31T20:32:52.794Z,98938.11
2023-01-31T20:35:21.182Z,98939.09
2023-01-31T20:37:49.242Z,98936.14
2023-01-31T20:40:17.907Z,98934.98
2023-01-31T20:42:46.651Z,98938.31
2023-01-31T20:45:15.300Z,98939.89
2023-01-31T20:47:43.609Z,98945.40
2023-01-31T20:50:11.973Z,98945.95
2023-01-31T20:52:40.244Z,98945.70
2023-01-31T20:55:09.642Z,98947.19
2023-01-31T20:57:37.804Z,98941.65
2023-01-31T21:00:07.963Z,98941.55
2023-01-31T21:02:36.273Z,98944.14
2023-01-31T21:05:05.011Z,98948.23
2023-01-31T21:07:33.158Z,98955.16
2023-01-31T21:10:01.624Z,98953.29
2023-01-31T21:12:33.139Z,98952.83
2023-01-31T21:15:01.280Z,98951.53
2023-01-31T21:17:39.614Z,98951.10
2023-01-31T21:20:11.075Z,98950.45
2023-01-31T21:22:39.101Z,98947.51
2023-01-31T21:25:09.175Z,98948.22
2023-01-31T21:27:37.372Z,98948.48
2023-01-31T21:30:06.500Z,98948.60
2023-01-31T21:32:34.567Z,98946.66
2023-01-31T21:35:03.532Z,98941.64
2023-01-31T21:37:32.176Z,98947.35
2023-01-31T21:40:00.215Z,98946.73
2023-01-31T21:42:28.292Z,98948.46
2023-01-31T21:44:56.308Z,98951.61
2023-01-31T21:47:24.478Z,98954.45
2023-01-31T21:49:52.655Z,98953.60
2023-01-31T21:52:20.814Z,98951.83
2023-01-31T23:58:55.916Z,98914.27
